createdAt,value
2023-02-17T00:00:57.387Z,100.00
2023-02-17T00:03:24.724Z,100.00
2023-02-17T00:05:51.336Z,100.00
2023-02-17T00:08:18.056Z,100.00
2023-02-17T00:10:44.629Z,100.00
2023-02-17T00:13:11.015Z,100.00
2023-02-17T00:15:40.389Z,100.00
2023-02-17T00:18:06.817Z,100.00
2023-02-17T00:20:33.208Z,100.00
2023-02-17T00:22:59.558Z,100.00
2023-02-17T00:25:26.024Z,100.00
2023-02-17T00:27:52.399Z,100.00
2023-02-17T00:30:19.171Z,100.00
2023-02-17T00:32:45.608Z,100.00
2023-02-17T00:35:12.291Z,100.00
2023-02-17T00:37:38.705Z,100.00
2023-02-17T00:40:05.771Z,100.00
2023-02-17T00:42:32.363Z,100.00
2023-02-17T00:44:58.795Z,100.00
2023-02-17T00:47:25.183Z,100.00
2023-02-17T00:49:51.546Z,100.00
2023-02-17T00:52:17.887Z,100.00
2023-02-17T00:54:44.303Z,100.00
2023-02-17T00:57:10.981Z,100.00
2023-02-17T00:59:37.488Z,100.00
2023-02-17T01:02:04.082Z,100.00
2023-02-17T01:04:30.505Z,100.00
2023-02-17T01:06:56.990Z,100.00
2023-02-17T01:09:23.680Z,100.00
2023-02-17T01:11:50.177Z,100.00
2023-02-17T01:14:16.651Z,100.00
2023-02-17T01:16:48.095Z,100.00
2023-02-17T01:19:17.905Z,100.00
2023-02-17T01:21:45.113Z,100.00
2023-02-17T01:24:12.292Z,100.00
2023-02-17T01:26:40.975Z,100.00
2023-02-17T01:29:08.218Z,100.00
2023-02-17T01:31:34.972Z,100.00
2023-02-17T01:34:03.638Z,100.00
2023-02-17T01:36:30.095Z,100.00
2023-02-17T01:38:56.735Z,100.00
2023-02-17T01:41:28.002Z,100.00
2023-02-17T01:44:15.856Z,100.00
2023-02-17T01:46:45.421Z,100.00
2023-02-17T01:49:39.637Z,100.00
2023-02-17T01:52:19.640Z,100.00
2023-02-17T01:54:51.642Z,100.00
2023-02-17T01:57:21.797Z,100.00
2023-02-17T01:59:48.731Z,100.00
2023-02-17T02:02:16.398Z,100.00
2023-02-17T02:04:46.618Z,100.00
2023-02-17T02:07:18.864Z,100.00
2023-02-17T02:09:54.710Z,100.00
2023-02-17T02:12:22.386Z,100.00
2023-02-17T02:14:49.929Z,100.00
2023-02-17T02:17:40.472Z,100.00
2023-02-17T02:20:45.746Z,100.00
2023-02-17T02:23:36.760Z,100.00
2023-02-17T02:26:40.475Z,100.00
2023-02-17T02:29:34.822Z,100.00
2023-02-17T02:32:25.451Z,100.00
2023-02-17T02:34:58.795Z,100.00
2023-02-17T02:37:32.339Z,100.00
2023-02-17T02:40:03.769Z,100.00
2023-02-17T02:42:30.535Z,100.00
2023-02-17T02:44:57.256Z,100.00
2023-02-17T02:47:57.932Z,100.00
2023-02-17T02:50:43.755Z,100.00
2023-02-17T02:53:25.604Z,100.00
2023-02-17T02:56:07.397Z,100.00
2023-02-17T02:58:36.942Z,100.00
2023-02-17T03:01:18.460Z,100.00
2023-02-17T03:04:17.999Z,100.00
2023-02-17T03:06:52.823Z,100.00
2023-02-17T03:09:25.771Z,100.00
2023-02-17T03:11:54.821Z,100.00
2023-02-17T03:14:22.417Z,100.00
2023-02-17T03:16:52.207Z,100.00
2023-02-17T03:19:22.093Z,100.00
2023-02-17T03:22:17.711Z,100.00
2023-02-17T03:24:44.040Z,100.00
2023-02-17T03:27:10.611Z,100.00
2023-02-17T03:29:36.955Z,100.00
2023-02-17T03:32:03.690Z,100.00
2023-02-17T03:34:33.048Z,100.00
2023-02-17T03:36:59.875Z,100.00
2023-02-17T03:39:27.427Z,100.00
2023-02-17T03:41:53.852Z,100.00
2023-02-17T03:44:20.322Z,100.00
2023-02-17T03:46:46.840Z,100.00
2023-02-17T03:49:13.470Z,100.00
2023-02-17T03:51:39.928Z,100.00
2023-02-17T03:54:06.531Z,100.00
2023-02-17T03:56:32.989Z,100.00
2023-02-17T03:58:59.337Z,100.00
2023-02-17T04:01:25.960Z,100.00
2023-02-17T04:03:52.375Z,100.00
2023-02-17T04:06:18.754Z,100.00
2023-02-17T04:08:45.195Z,100.00
2023-02-17T04:11:11.784Z,100.00
2023-02-17T04:13:38.721Z,100.00
2023-02-17T04:16:08.533Z,100.00
2023-02-17T04:18:35.715Z,100.00
2023-02-17T04:21:02.601Z,100.00
2023-02-17T04:23:28.951Z,100.00
2023-02-17T04:25:55.403Z,100.00
2023-02-17T04:28:22.212Z,100.00
2023-02-17T04:30:50.522Z,100.00
2023-02-17T04:33:17.647Z,100.00
2023-02-17T04:35:44.423Z,100.00
2023-02-17T04:38:11.656Z,100.00
2023-02-17T04:40:38.668Z,100.00
2023-02-17T04:43:05.195Z,100.00
2023-02-17T04:45:31.727Z,100.00
2023-02-17T04:47:58.124Z,100.00
2023-02-17T04:50:24.531Z,100.00
2023-02-17T04:52:51.159Z,100.00
2023-02-17T04:55:17.859Z,100.00
2023-02-17T04:57:44.351Z,100.00
2023-02-17T05:00:11.711Z,100.00
2023-02-17T05:02:38.236Z,100.00
2023-02-17T05:05:04.817Z,100.00
2023-02-17T05:07:31.266Z,100.00
2023-02-17T05:09:57.690Z,100.00
2023-02-17T05:12:24.513Z,100.00
2023-02-17T05:14:51.036Z,100.00
2023-02-17T05:17:17.453Z,100.00
2023-02-17T05:19:43.916Z,100.00
2023-02-17T05:22:10.515Z,100.00
2023-02-17T05:24:38.824Z,100.00
2023-02-17T05:27:05.317Z,100.00
2023-02-17T05:29:31.806Z,100.00
2023-02-17T05:31:58.261Z,100.00
2023-02-17T05:34:24.760Z,100.00
2023-02-17T05:36:51.141Z,100.00
2023-02-17T05:39:17.543Z,100.00
2023-02-17T05:41:43.973Z,100.00
2023-02-17T05:44:10.443Z,100.00
2023-02-17T05:46:36.890Z,100.00
2023-02-17T05:49:06.228Z,100.00
2023-02-17T05:51:32.697Z,100.00
2023-02-17T05:53:59.446Z,100.00
2023-02-17T05:56:25.827Z,100.00
2023-02-17T05:58:52.321Z,100.00
2023-02-17T06:01:18.715Z,100.00
2023-02-17T06:03:45.168Z,100.00
2023-02-17T06:06:11.533Z,100.00
2023-02-17T06:08:38.140Z,100.00
2023-02-17T06:11:04.740Z,100.00
2023-02-17T06:13:31.106Z,100.00
2023-02-17T06:15:57.624Z,100.00
2023-02-17T06:18:24.103Z,100.00
2023-02-17T06:20:50.668Z,100.00
2023-02-17T06:23:17.208Z,100.00
2023-02-17T06:25:43.583Z,100.00
2023-02-17T06:28:10.356Z,100.00
2023-02-17T06:30:36.733Z,100.00
2023-02-17T06:33:03.290Z,100.00
2023-02-17T06:35:29.706Z,100.00
2023-02-17T06:37:56.110Z,100.00
2023-02-17T06:40:22.482Z,100.00
2023-02-17T06:42:48.932Z,100.00
2023-02-17T06:45:15.625Z,100.00
2023-02-17T06:47:42.159Z,100.00
2023-02-17T06:50:09.242Z,100.00
2023-02-17T06:52:35.789Z,100.00
2023-02-17T06:55:02.233Z,100.00
2023-02-17T06:57:28.700Z,100.00
2023-02-17T06:59:55.203Z,100.00
2023-02-17T07:02:21.642Z,100.00
2023-02-17T07:04:48.166Z,100.00
2023-02-17T07:07:14.604Z,100.00
2023-02-17T07:09:41.029Z,100.00
2023-02-17T07:12:07.594Z,100.00
2023-02-17T07:14:35.099Z,100.00
2023-02-17T07:17:02.158Z,100.00
2023-02-17T07:19:28.600Z,100.00
2023-02-17T07:21:55.235Z,100.00
2023-02-17T07:24:21.589Z,100.00
2023-02-17T07:26:48.067Z,100.00
2023-02-17T07:29:14.551Z,100.00
2023-02-17T07:31:41.055Z,100.00
2023-02-17T07:34:07.524Z,100.00
2023-02-17T07:36:38.227Z,100.00
2023-02-17T07:39:04.999Z,100.00
2023-02-17T07:41:33.541Z,100.00
2023-02-17T07:44:00.129Z,100.00
2023-02-17T07:46:27.037Z,100.00
2023-02-17T07:48:53.589Z,100.00
2023-02-17T07:51:22.082Z,100.00
2023-02-17T07:53:49.576Z,100.00
2023-02-17T07:56:18.097Z,100.00
2023-02-17T07:58:45.381Z,100.00
2023-02-17T08:01:17.774Z,100.00
2023-02-17T08:03:45.151Z,100.00
2023-02-17T08:06:13.752Z,100.00
2023-02-17T08:08:59.269Z,100.00
2023-02-17T08:11:46.500Z,100.00
2023-02-17T08:14:14.491Z,100.00
2023-02-17T08:16:41.396Z,100.00
2023-02-17T08:19:08.139Z,100.00
2023-02-17T08:21:35.142Z,100.00
2023-02-17T08:24:01.722Z,100.00
2023-02-17T08:26:28.352Z,100.00
2023-02-17T08:28:55.645Z,100.00
2023-02-17T08:31:26.031Z,100.00
2023-02-17T08:33:53.096Z,100.00
2023-02-17T08:36:22.195Z,100.00
2023-02-17T08:38:50.421Z,100.00
2023-02-17T08:41:37.038Z,100.00
2023-02-17T08:44:07.918Z,100.00
2023-02-17T08:46:35.786Z,100.00
2023-02-17T08:49:02.443Z,100.00
2023-02-17T08:51:28.866Z,100.00
2023-02-17T08:53:58.614Z,100.00
2023-02-17T08:56:26.149Z,100.00
2023-02-17T08:58:53.213Z,100.00
2023-02-17T09:01:20.475Z,100.00
2023-02-17T09:03:48.799Z,100.00
2023-02-17T09:06:15.819Z,100.00
2023-02-17T09:08:43.199Z,100.00
2023-02-17T09:11:10.179Z,100.00
2023-02-17T09:13:37.092Z,100.00
2023-02-17T09:16:04.771Z,100.00
2023-02-17T09:18:31.394Z,100.00
2023-02-17T09:20:58.434Z,100.00
2023-02-17T09:23:24.974Z,100.00
2023-02-17T09:26:01.358Z,100.00
2023-02-17T09:28:27.731Z,100.00
2023-02-17T09:30:54.320Z,100.00
2023-02-17T09:33:20.860Z,100.00
2023-02-17T09:35:47.302Z,100.00
2023-02-17T09:38:13.674Z,100.00
2023-02-17T09:40:49.715Z,100.00
2023-02-17T09:43:20.609Z,100.00
2023-02-17T09:45:53.078Z,100.00
2023-02-17T09:48:24.578Z,100.00
2023-02-17T09:51:02.684Z,100.00
2023-02-17T09:53:37.602Z,100.00
2023-02-17T09:56:07.599Z,100.00
2023-02-17T09:58:40.103Z,100.00
2023-02-17T10:01:12.109Z,100.00
2023-02-17T10:03:43.377Z,100.00
2023-02-17T10:06:12.853Z,100.00
2023-02-17T10:08:48.043Z,100.00
2023-02-17T10:11:24.332Z,100.00
2023-02-17T10:13:53.040Z,100.00
2023-02-17T10:16:32.219Z,100.00
2023-02-17T10:19:28.035Z,100.00
2023-02-17T10:22:07.092Z,100.00
2023-02-17T10:24:33.618Z,100.00
2023-02-17T10:27:12.263Z,100.00
2023-02-17T10:29:44.914Z,100.00
2023-02-17T10:32:26.116Z,100.00
2023-02-17T10:35:10.381Z,100.00
2023-02-17T10:37:48.302Z,100.00
2023-02-17T10:40:20.470Z,100.00
2023-02-17T10:42:49.439Z,100.00
2023-02-17T10:45:35.837Z,100.00
2023-02-17T10:48:06.745Z,100.00
2023-02-17T10:50:35.007Z,100.00
2023-02-17T10:53:01.598Z,100.00
2023-02-17T10:55:39.440Z,100.00
2023-02-17T10:58:27.774Z,100.00
2023-02-17T11:00:56.869Z,100.00
2023-02-17T11:03:26.692Z,100.00
2023-02-17T11:06:15.697Z,100.00
2023-02-17T11:08:59.627Z,100.00
2023-02-17T11:11:30.539Z,100.00
2023-02-17T11:14:28.287Z,100.00
2023-02-17T11:16:59.531Z,100.00
2023-02-17T11:19:35.692Z,100.00
2023-02-17T11:22:05.712Z,100.00
2023-02-17T11:24:34.407Z,100.00
2023-02-17T11:27:08.504Z,100.00
2023-02-17T11:29:34.980Z,100.00
2023-02-17T11:32:08.882Z,100.00
2023-02-17T11:34:38.441Z,100.00
2023-02-17T11:37:13.861Z,100.00
2023-02-17T11:39:46.847Z,100.00
2023-02-17T11:42:17.430Z,100.00
2023-02-17T11:44:43.832Z,100.00
2023-02-17T11:47:27.437Z,100.00
2023-02-17T11:50:11.771Z,100.00
2023-02-17T11:52:59.683Z,100.00
2023-02-17T11:55:47.532Z,100.00
2023-02-17T11:58:29.188Z,100.00
2023-02-17T12:01:24.999Z,100.00
2023-02-17T12:04:17.099Z,100.00
2023-02-17T12:06:59.655Z,100.00
2023-02-17T12:09:48.503Z,100.00
2023-02-17T12:12:52.438Z,100.00
2023-02-17T12:15:29.753Z,100.00
2023-02-17T12:18:30.056Z,100.00
2023-02-17T12:21:20.108Z,100.00
2023-02-17T12:23:55.545Z,100.00
2023-02-17T12:26:36.256Z,100.00
2023-02-17T12:30:00.509Z,100.00
2023-02-17T12:32:46.557Z,100.00
2023-02-17T12:35:18.943Z,100.00
2023-02-17T12:37:53.638Z,100.00
2023-02-17T12:40:36.840Z,100.00
2023-02-17T12:43:18.135Z,100.00
2023-02-17T12:45:48.238Z,100.00
2023-02-17T12:48:43.692Z,100.00
2023-02-17T12:51:47.485Z,100.00
2023-02-17T12:54:26.031Z,100.00
2023-02-17T12:57:03.109Z,100.00
2023-02-17T12:59:29.438Z,100.00
2023-02-17T13:02:02.731Z,100.00
2023-02-17T13:04:31.225Z,100.00
2023-02-17T13:07:23.462Z,100.00
2023-02-17T13:09:51.527Z,100.00
2023-02-17T13:12:32.587Z,100.00
2023-02-17T13:15:02.100Z,100.00
2023-02-17T13:17:34.450Z,100.00
2023-02-17T13:20:09.782Z,100.00
2023-02-17T13:22:41.794Z,100.00
2023-02-17T13:25:13.891Z,100.00
2023-02-17T13:27:40.884Z,100.00
2023-02-17T13:30:29.063Z,100.00
2023-02-17T13:33:02.657Z,100.00
2023-02-17T13:35:34.170Z,100.00
2023-02-17T13:38:00.913Z,100.00
2023-02-17T13:40:30.465Z,99.97
2023-02-17T13:42:57.771Z,100.00
2023-02-17T13:45:25.620Z,100.00
2023-02-17T13:48:13.378Z,100.00
2023-02-17T13:50:48.213Z,100.00
2023-02-17T13:53:25.584Z,100.00
2023-02-17T13:55:53.542Z,100.00
2023-02-17T13:58:29.169Z,100.00
2023-02-17T14:00:57.634Z,100.00
2023-02-17T14:03:25.715Z,100.00
2023-02-17T14:05:57.599Z,100.00
2023-02-17T14:08:32.531Z,100.00
2023-02-17T14:11:06.036Z,100.00
2023-02-17T14:13:32.513Z,100.00
2023-02-17T14:16:00.541Z,100.00
2023-02-17T14:18:39.194Z,100.00
2023-02-17T14:21:06.192Z,99.63
2023-02-17T14:23:53.355Z,99.58
2023-02-17T14:26:27.548Z,99.52
2023-02-17T14:28:58.049Z,99.59
2023-02-17T14:31:25.359Z,99.11
2023-02-17T14:34:00.753Z,99.48
2023-02-17T14:36:28.515Z,99.26
2023-02-17T14:38:56.502Z,99.36
2023-02-17T14:41:23.000Z,99.71
2023-02-17T14:43:49.433Z,99.66
2023-02-17T14:46:19.423Z,99.81
2023-02-17T14:48:47.770Z,99.92
2023-02-17T14:51:17.069Z,99.67
2023-02-17T14:53:43.827Z,99.64
2023-02-17T14:56:30.855Z,99.69
2023-02-17T14:58:57.411Z,99.36
2023-02-17T15:01:25.114Z,99.85
2023-02-17T15:03:53.918Z,99.84
2023-02-17T15:06:27.077Z,99.76
2023-02-17T15:08:54.899Z,99.43
2023-02-17T15:11:24.014Z,99.27
2023-02-17T15:13:50.479Z,99.56
2023-02-17T15:16:17.030Z,99.33
2023-02-17T15:18:43.488Z,99.29
2023-02-17T15:21:25.801Z,99.68
2023-02-17T15:23:52.942Z,99.94
2023-02-17T15:26:19.631Z,99.62
2023-02-17T15:28:46.173Z,99.70
2023-02-17T15:31:15.763Z,99.48
2023-02-17T15:33:45.349Z,99.80
2023-02-17T15:36:17.377Z,99.68
2023-02-17T15:38:43.998Z,100.00
2023-02-17T15:41:17.112Z,100.00
2023-02-17T15:43:46.771Z,100.00
2023-02-17T15:46:15.171Z,100.00
2023-02-17T15:48:43.230Z,100.00
2023-02-17T15:51:12.161Z,100.00
2023-02-17T15:53:38.675Z,100.00
2023-02-17T15:56:20.388Z,100.00
2023-02-17T15:58:48.816Z,100.00
2023-02-17T16:01:28.874Z,100.00
2023-02-17T16:03:56.292Z,100.00
2023-02-17T16:06:23.862Z,100.00
2023-02-17T16:08:50.407Z,100.00
2023-02-17T16:11:17.956Z,100.00
2023-02-17T16:13:46.282Z,100.00
2023-02-17T16:16:20.422Z,100.00
2023-02-17T16:18:47.543Z,100.00
2023-02-17T16:21:14.902Z,100.00
2023-02-17T16:23:42.251Z,100.00
2023-02-17T16:26:27.168Z,100.00
2023-02-17T16:28:54.444Z,100.00
2023-02-17T16:31:21.025Z,100.00
2023-02-17T16:33:47.560Z,100.00
2023-02-17T16:36:16.759Z,100.00
2023-02-17T16:38:44.802Z,100.00
2023-02-17T16:41:16.495Z,100.00
2023-02-17T16:43:43.516Z,100.00
2023-02-17T16:46:22.698Z,100.00
2023-02-17T16:48:49.137Z,100.00
2023-02-17T16:51:15.563Z,100.00
2023-02-17T16:53:42.030Z,100.00
2023-02-17T16:56:36.669Z,100.00
2023-02-17T16:59:03.340Z,100.00
2023-02-17T17:01:29.742Z,100.00
2023-02-17T17:03:56.322Z,100.00
2023-02-17T17:06:26.035Z,100.00
2023-02-17T17:08:54.016Z,100.00
2023-02-17T17:11:23.471Z,100.00
2023-02-17T17:13:50.357Z,100.00
2023-02-17T17:16:21.306Z,100.00
2023-02-17T17:18:48.229Z,100.00
2023-02-17T17:21:16.817Z,100.00
2023-02-17T17:23:43.638Z,100.00
2023-02-17T17:26:14.305Z,100.00
2023-02-17T17:28:40.757Z,100.00
2023-02-17T17:31:11.036Z,100.00
2023-02-17T17:33:37.415Z,100.00
2023-02-17T17:36:26.566Z,100.00
2023-02-17T17:38:54.289Z,100.00
2023-02-17T17:41:21.291Z,100.00
2023-02-17T17:43:48.963Z,100.00
2023-02-17T17:46:18.118Z,100.00
2023-02-17T17:48:44.846Z,100.00
2023-02-17T17:51:14.853Z,100.00
2023-02-17T17:53:41.680Z,99.72
2023-02-17T17:56:23.231Z,99.59
2023-02-17T17:58:49.963Z,99.60
2023-02-17T18:01:16.460Z,99.87
2023-02-17T18:03:43.239Z,99.40
2023-02-17T18:06:15.746Z,99.23
2023-02-17T18:08:44.132Z,99.33
2023-02-17T18:11:11.583Z,98.88
2023-02-17T18:13:38.429Z,99.03
2023-02-17T18:16:05.663Z,99.02
2023-02-17T18:18:32.334Z,99.37
2023-02-17T18:20:59.174Z,99.17
2023-02-17T18:23:25.844Z,98.99
2023-02-17T18:25:52.246Z,99.06
2023-02-17T18:28:18.631Z,99.02
2023-02-17T18:30:45.089Z,98.71
2023-02-17T18:33:11.758Z,99.06
2023-02-17T18:35:38.657Z,98.79
2023-02-17T18:38:05.038Z,98.77
2023-02-17T18:40:31.721Z,98.85
2023-02-17T18:42:58.310Z,98.22
2023-02-17T18:45:26.178Z,98.69
2023-02-17T18:47:52.752Z,98.08
2023-02-17T18:50:19.188Z,98.48
2023-02-17T18:52:45.553Z,98.32
2023-02-17T18:55:12.287Z,99.17
2023-02-17T18:57:38.660Z,99.16
2023-02-17T19:00:06.372Z,99.13
2023-02-17T19:02:35.995Z,98.99
2023-02-17T19:05:02.774Z,98.56
2023-02-17T19:07:29.130Z,98.76
2023-02-17T19:09:55.599Z,98.96
2023-02-17T19:12:22.185Z,98.70
2023-02-17T19:14:53.059Z,98.85
2023-02-17T19:17:19.507Z,98.94
2023-02-17T19:19:45.959Z,99.53
2023-02-17T19:22:12.394Z,99.27
2023-02-17T19:24:41.000Z,99.32
2023-02-17T19:27:11.102Z,99.69
2023-02-17T19:29:37.677Z,98.93
2023-02-17T19:32:04.579Z,99.47
2023-02-17T19:34:31.491Z,99.37
2023-02-17T19:36:58.268Z,98.91
2023-02-17T19:39:24.610Z,98.94
2023-02-17T19:41:51.055Z,99.10
2023-02-17T19:44:17.522Z,99.20
2023-02-17T19:46:43.896Z,99.14
2023-02-17T19:49:10.328Z,99.39
2023-02-17T19:51:36.746Z,99.18
2023-02-17T19:54:03.181Z,99.36
2023-02-17T19:56:32.640Z,98.97
2023-02-17T19:58:59.602Z,99.43
2023-02-17T20:01:29.097Z,99.83
2023-02-17T20:03:56.925Z,99.26
2023-02-17T20:06:29.898Z,99.73
2023-02-17T20:08:59.533Z,99.58
2023-02-17T20:11:27.176Z,100.00
2023-02-17T20:13:54.391Z,100.00
2023-02-17T20:16:20.930Z,99.75
2023-02-17T20:18:49.660Z,100.00
2023-02-17T20:21:22.263Z,100.00
2023-02-17T20:23:48.810Z,99.87
2023-02-17T20:26:19.772Z,100.00
2023-02-17T20:28:46.291Z,99.99
2023-02-17T20:31:13.226Z,99.91
2023-02-17T20:33:39.700Z,99.79
2023-02-17T20:36:08.028Z,100.00
2023-02-17T20:38:37.358Z,100.00
2023-02-17T20:41:05.159Z,100.00
2023-02-17T20:43:31.626Z,100.00
2023-02-17T20:45:58.653Z,100.00
2023-02-17T20:48:27.543Z,100.00
2023-02-17T20:50:55.612Z,100.00
2023-02-17T20:53:22.186Z,100.00
2023-02-17T20:55:48.914Z,100.00
2023-02-17T20:58:15.556Z,100.00
2023-02-17T21:00:42.032Z,100.00
2023-02-17T21:03:08.685Z,100.00
2023-02-17T21:05:36.441Z,100.00
2023-02-17T21:08:03.368Z,100.00
2023-02-17T21:10:31.387Z,100.00
2023-02-17T21:12:57.856Z,100.00
2023-02-17T21:15:24.808Z,100.00
2023-02-17T21:17:51.265Z,100.00
2023-02-17T21:20:21.171Z,100.00
2023-02-17T21:22:47.913Z,100.00
2023-02-17T21:25:14.348Z,100.00
2023-02-17T21:27:40.890Z,100.00
2023-02-17T21:30:09.196Z,100.00
2023-02-17T21:32:35.725Z,100.00
2023-02-17T21:35:02.341Z,100.00
2023-02-17T21:37:28.755Z,100.00
2023-02-17T21:39:55.232Z,100.00
2023-02-17T21:42:43.130Z,100.00
2023-02-17T21:45:10.524Z,100.00
2023-02-17T21:47:36.988Z,100.00
2023-02-17T21:50:03.446Z,100.00
2023-02-17T21:52:29.919Z,100.00
2023-02-17T21:54:56.310Z,100.00
2023-02-17T21:57:22.723Z,100.00
2023-02-17T21:59:49.138Z,100.00
2023-02-17T22:02:15.614Z,100.00
2023-02-17T22:04:42.131Z,100.00
2023-02-17T22:07:10.879Z,100.00
2023-02-17T22:09:37.598Z,100.00
2023-02-17T22:12:04.027Z,100.00
2023-02-17T22:14:30.424Z,100.00
2023-02-17T22:16:57.437Z,100.00
2023-02-17T22:19:24.713Z,100.00
2023-02-17T22:21:51.822Z,100.00
2023-02-17T22:24:20.751Z,100.00
2023-02-17T22:26:48.523Z,100.00
2023-02-17T22:29:15.174Z,100.00
2023-02-17T22:31:41.657Z,100.00
2023-02-17T22:34:10.012Z,100.00
2023-02-17T22:36:37.158Z,100.00
2023-02-17T22:39:05.705Z,100.00
2023-02-17T22:41:33.514Z,100.00
2023-02-17T22:44:01.436Z,100.00
2023-02-17T22:46:27.890Z,100.00
2023-02-17T22:48:55.939Z,100.00
2023-02-17T22:51:36.048Z,100.00
2023-02-17T22:54:03.087Z,100.00
2023-02-17T22:56:30.203Z,100.00
2023-02-17T22:59:00.555Z,100.00
2023-02-17T23:01:28.610Z,100.00
2023-02-17T23:03:55.227Z,100.00
2023-02-17T23:06:31.823Z,100.00
2023-02-17T23:08:59.902Z,100.00
2023-02-17T23:11:48.582Z,100.00
2023-02-17T23:14:17.526Z,100.00
2023-02-17T23:16:43.991Z,100.00
2023-02-17T23:19:14.299Z,100.00
2023-02-17T23:21:46.178Z,100.00
2023-02-17T23:24:14.024Z,100.00
2023-02-17T23:26:40.723Z,100.00
2023-02-17T23:29:07.222Z,100.00
2023-02-17T23:31:34.204Z,100.00
2023-02-17T23:34:00.687Z,100.00
2023-02-17T23:36:27.312Z,100.00
2023-02-17T23:38:55.599Z,100.00
2023-02-17T23:41:22.020Z,100.00
2023-02-17T23:43:48.449Z,100.00
2023-02-17T23:46:14.900Z,100.00
2023-02-17T23:48:41.327Z,100.00
2023-02-17T23:51:07.863Z,100.00
2023-02-17T23:53:34.427Z,100.00
2023-02-17T23:56:06.627Z,100.00
2023-02-17T23:58:34.648Z,100.00
